Time;durP1;ratioP1;P1;durP2;ratioP2;P2;SDS_P1;SDS_P2;PMS_P1;PMS_P2;Temp;Humidity;BMP_temperature;BMP_pressure;BME280_temperature;BME280_humidity;BME280_pressure;Samples;Min_cycle;Max_cycle;Signal;HPM_P1;HPM_P2
2021/03/22 00:02:01;;;;;;;28.85;14.82;;;5.20;99.90;;;;;;5075791;28;20114;-52
2021/03/22 00:04:27;;;;;;;27.80;15.50;;;5.30;99.90;;;;;;5039683;28;20056;-52
2021/03/22 00:06:53;;;;;;;25.13;13.80;;;5.20;99.90;;;;;;5076014;28;20060;-52
2021/03/22 00:09:19;;;;;;;28.05;14.43;;;5.10;99.90;;;;;;5075784;28;20082;-51
2021/03/22 00:11:44;;;;;;;26.70;14.85;;;5.20;99.90;;;;;;5069205;28;20025;-52
2021/03/22 00:14:10;;;;;;;25.60;13.75;;;5.20;99.90;;;;;;5064708;28;20040;-52
2021/03/22 00:16:36;;;;;;;24.08;14.48;;;5.20;99.90;;;;;;5021856;28;20162;-52
2021/03/22 00:19:02;;;;;;;27.98;16.13;;;5.10;99.90;;;;;;5061630;28;20031;-52
2021/03/22 00:21:27;;;;;;;31.67;14.52;;;5.20;99.90;;;;;;4999301;28;20041;-52
2021/03/22 00:23:53;;;;;;;24.40;14.07;;;5.10;99.90;;;;;;5031475;28;20033;-52
2021/03/22 00:26:19;;;;;;;31.10;15.02;;;5.10;99.90;;;;;;5031499;28;20044;-51
2021/03/22 00:28:45;;;;;;;24.85;14.07;;;5.10;99.90;;;;;;5055198;28;20116;-51
2021/03/22 00:31:13;;;;;;;27.35;15.95;;;5.10;99.90;;;;;;5055227;28;20049;-52
2021/03/22 00:33:39;;;;;;;27.40;14.63;;;5.00;99.90;;;;;;5055453;28;20059;-51
2021/03/22 00:36:07;;;;;;;31.13;15.18;;;5.00;99.90;;;;;;5055323;28;20060;-52
2021/03/22 00:38:33;;;;;;;29.90;16.42;;;5.00;99.90;;;;;;5041620;28;20033;-52
2021/03/22 00:40:59;;;;;;;26.00;14.70;;;5.00;99.90;;;;;;5027628;28;20048;-52
2021/03/22 00:43:25;;;;;;;25.50;14.82;;;4.90;99.90;;;;;;5055321;28;20111;-51
2021/03/22 00:45:56;;;;;;;25.77;14.93;;;4.90;99.90;;;;;;5055091;28;20029;-52
2021/03/22 00:48:23;;;;;;;26.60;15.18;;;4.90;99.90;;;;;;5013342;28;20489;-51
2021/03/22 00:50:49;;;;;;;29.70;15.40;;;4.90;99.90;;;;;;5013207;28;20041;-51
2021/03/22 00:53:16;;;;;;;30.33;16.17;;;5.00;99.90;;;;;;5013231;28;20128;-51
2021/03/22 00:55:42;;;;;;;28.08;15.38;;;5.10;99.90;;;;;;4996629;28;20037;-51
2021/03/22 00:58:08;;;;;;;24.50;14.32;;;5.00;99.90;;;;;;5013131;28;20046;-52
2021/03/22 01:00:39;;;;;;;29.95;16.02;;;5.10;99.90;;;;;;5012008;28;20042;-52
2021/03/22 01:03:08;;;;;;;27.35;15.48;;;5.10;99.90;;;;;;5012939;28;20049;-51
2021/03/22 01:05:34;;;;;;;26.30;14.38;;;5.10;99.90;;;;;;4993317;28;20038;-52
2021/03/22 01:08:00;;;;;;;24.20;13.85;;;5.00;99.90;;;;;;4993372;28;20058;-51
2021/03/22 01:10:28;;;;;;;28.25;14.82;;;5.00;99.90;;;;;;4993284;28;20540;-52
2021/03/22 01:12:54;;;;;;;30.58;16.42;;;5.00;99.90;;;;;;4993134;28;20129;-51
2021/03/22 01:15:20;;;;;;;34.67;18.95;;;5.00;99.90;;;;;;4960865;28;20038;-52
2021/03/22 01:17:46;;;;;;;33.67;18.20;;;5.00;99.90;;;;;;4993099;28;20026;-52
2021/03/22 01:20:15;;;;;;;33.40;17.42;;;5.10;99.90;;;;;;4993250;28;20119;-52
2021/03/22 01:22:40;;;;;;;27.70;15.45;;;5.10;99.90;;;;;;5016162;28;20088;-52
2021/03/22 01:25:08;;;;;;;29.83;16.25;;;4.90;99.90;;;;;;5003290;28;20384;-52
2021/03/22 01:27:37;;;;;;;27.55;13.70;;;5.00;99.90;;;;;;4995352;28;20060;-52
2021/03/22 01:30:13;;;;;;;26.40;14.30;;;5.00;99.90;;;;;;5001061;28;20049;-51
2021/03/22 01:32:39;;;;;;;27.00;13.95;;;4.80;99.90;;;;;;5001100;28;20033;-52
2021/03/22 01:35:06;;;;;;;24.15;13.18;;;4.70;99.90;;;;;;5032066;28;20547;-52
2021/03/22 01:37:32;;;;;;;26.83;13.52;;;4.70;99.90;;;;;;5003182;28;20072;-52
2021/03/22 01:39:58;;;;;;;32.05;15.40;;;4.60;99.90;;;;;;5053888;28;20392;-52
2021/03/22 01:42:58;;;;;;;24.90;14.45;;;4.60;99.90;;;;;;5054136;28;20029;-52
2021/03/22 01:45:24;;;;;;;26.98;13.80;;;4.70;99.90;;;;;;5053833;28;20369;-49
2021/03/22 01:47:50;;;;;;;27.85;14.52;;;4.80;99.90;;;;;;5053692;28;20045;-51
2021/03/22 01:50:22;;;;;;;25.13;13.65;;;4.90;99.90;;;;;;5053948;28;20036;-50
2021/03/22 01:52:49;;;;;;;22.83;11.88;;;4.80;99.90;;;;;;5053677;28;20021;-50
2021/03/22 01:55:17;;;;;;;23.63;12.98;;;4.70;99.90;;;;;;5035352;28;20445;-50
2021/03/22 01:57:45;;;;;;;25.52;13.25;;;4.80;99.90;;;;;;5053906;28;20083;-50
2021/03/22 02:00:28;;;;;;;22.38;11.23;;;4.90;99.90;;;;;;5053694;28;20037;-50
2021/03/22 02:03:10;;;;;;;23.58;11.02;;;4.90;99.90;;;;;;5035236;28;20033;-50
2021/03/22 02:05:40;;;;;;;23.92;12.13;;;4.90;99.90;;;;;;5071483;28;20032;-50
2021/03/22 02:08:14;;;;;;;20.60;10.93;;;5.10;99.90;;;;;;5056602;28;20028;-50
2021/03/22 02:10:42;;;;;;;17.58;10.75;;;5.20;99.90;;;;;;5053142;28;20522;-50
2021/03/22 02:13:10;;;;;;;18.05;10.23;;;5.30;99.90;;;;;;5070453;28;20076;-50
2021/03/22 02:15:37;;;;;;;22.55;10.93;;;5.30;99.90;;;;;;5068961;28;20117;-50
2021/03/22 02:18:12;;;;;;;16.55;9.55;;;5.40;99.90;;;;;;5053482;28;20083;-50
2021/03/22 02:21:15;;;;;;;15.35;9.20;;;5.30;99.90;;;;;;5053461;28;20037;-50
2021/03/22 02:24:18;;;;;;;16.30;8.43;;;5.40;99.90;;;;;;5046926;28;20033;-50
2021/03/22 02:27:08;;;;;;;14.32;7.95;;;5.50;99.90;;;;;;5047085;28;20053;-50
2021/03/22 02:29:43;;;;;;;16.70;8.95;;;5.50;99.90;;;;;;4998635;28;20504;-50
2021/03/22 02:32:28;;;;;;;13.35;8.15;;;5.50;99.90;;;;;;5002033;28;20052;-50
2021/03/22 02:35:36;;;;;;;16.52;8.32;;;5.40;99.90;;;;;;5045835;28;20025;-50
2021/03/22 02:38:09;;;;;;;13.68;7.57;;;5.30;99.90;;;;;;5053333;28;20029;-50
2021/03/22 02:40:43;;;;;;;10.73;6.13;;;5.30;99.90;;;;;;5053255;28;20076;-50
2021/03/22 02:43:09;;;;;;;11.02;6.22;;;5.30;99.90;;;;;;5053121;28;20091;-50
2021/03/22 02:45:39;;;;;;;10.77;6.22;;;5.30;99.90;;;;;;5053202;28;20060;-51
2021/03/22 02:48:07;;;;;;;10.18;5.85;;;5.20;99.90;;;;;;5053225;28;20366;-50
2021/03/22 02:50:37;;;;;;;10.45;5.53;;;5.20;99.90;;;;;;5053184;28;20116;-50
2021/03/22 02:53:27;;;;;;;8.05;5.22;;;5.20;99.90;;;;;;5053130;28;20032;-51
2021/03/22 02:56:23;;;;;;;8.63;5.28;;;5.20;99.90;;;;;;5053163;28;20087;-51
2021/03/22 02:59:10;;;;;;;9.73;5.15;;;5.20;99.90;;;;;;5053505;28;20075;-50
2021/03/22 03:01:43;;;;;;;8.00;4.68;;;5.10;99.90;;;;;;5052901;28;20040;-50
2021/03/22 03:04:13;;;;;;;9.32;5.55;;;5.20;99.90;;;;;;5053011;28;20029;-51
2021/03/22 03:06:48;;;;;;;8.70;5.07;;;5.30;99.90;;;;;;5034667;28;20064;-52
2021/03/22 03:09:15;;;;;;;6.57;4.10;;;5.30;99.90;;;;;;5034809;28;20039;-51
2021/03/22 03:11:42;;;;;;;11.45;5.65;;;5.20;99.90;;;;;;5053049;28;20104;-51
2021/03/22 03:14:07;;;;;;;10.23;5.22;;;5.10;99.90;;;;;;5052783;28;20044;-51
2021/03/22 03:16:33;;;;;;;10.50;5.10;;;5.00;99.90;;;;;;5052876;28;20040;-51
2021/03/22 03:18:59;;;;;;;8.85;4.80;;;4.90;99.90;;;;;;4969058;28;20492;-51
2021/03/22 03:21:25;;;;;;;6.72;4.82;;;5.00;99.90;;;;;;5044722;28;20084;-51
2021/03/22 03:23:52;;;;;;;11.95;5.82;;;4.90;99.90;;;;;;5049220;28;20372;-50
2021/03/22 03:26:18;;;;;;;9.15;4.90;;;5.00;99.90;;;;;;5056327;28;20115;-51
2021/03/22 03:28:44;;;;;;;10.05;5.38;;;5.10;99.90;;;;;;5056741;28;20534;-50
2021/03/22 03:31:10;;;;;;;10.02;5.82;;;5.30;99.90;;;;;;5056342;28;20139;-50
2021/03/22 03:33:35;;;;;;;12.15;6.05;;;5.40;99.90;;;;;;5039806;28;20116;-51
2021/03/22 03:36:01;;;;;;;10.75;6.18;;;5.50;99.90;;;;;;5036225;28;20480;-51
2021/03/22 03:38:27;;;;;;;10.73;5.80;;;5.60;99.90;;;;;;5036271;28;20041;-51
2021/03/22 03:40:53;;;;;;;8.98;5.40;;;5.90;99.90;;;;;;5036266;28;20086;-51
2021/03/22 03:43:19;;;;;;;12.80;6.35;;;5.80;99.90;;;;;;5029396;28;20040;-51
2021/03/22 03:45:47;;;;;;;8.52;5.60;;;;;;;;;;5056370;28;20479;-51
2021/03/22 03:48:17;;;;;;;9.88;5.20;;;5.90;99.90;;;;;;5053230;28;20029;-51
2021/03/22 03:50:42;;;;;;;10.23;5.43;;;5.90;99.90;;;;;;5056091;28;20103;-50
2021/03/22 03:53:10;;;;;;;8.10;4.65;;;5.90;99.90;;;;;;4972325;28;20119;-51
2021/03/22 03:55:36;;;;;;;10.23;5.28;;;5.90;99.90;;;;;;5055910;28;20041;-51
2021/03/22 03:58:03;;;;;;;9.30;4.90;;;5.90;99.90;;;;;;5055971;28;20079;-51
2021/03/22 04:00:44;;;;;;;9.27;5.22;;;5.90;99.90;;;;;;5055856;28;20124;-50
2021/03/22 04:03:31;;;;;;;8.23;4.88;;;5.70;99.90;;;;;;5055795;28;20025;-50
2021/03/22 04:05:57;;;;;;;11.05;5.38;;;5.60;99.90;;;;;;5056258;28;20108;-51
2021/03/22 04:08:24;;;;;;;9.05;5.18;;;5.60;99.90;;;;;;5056458;28;20061;-51
2021/03/22 04:10:51;;;;;;;11.35;5.40;;;5.40;99.90;;;;;;5055751;28;20036;-51
2021/03/22 04:13:18;;;;;;;10.05;5.15;;;5.40;99.90;;;;;;5056037;28;20116;-50
2021/03/22 04:15:44;;;;;;;7.72;4.72;;;5.30;99.90;;;;;;5055570;28;20033;-50
2021/03/22 04:18:09;;;;;;;8.65;5.47;;;5.40;99.90;;;;;;5055792;28;20090;-50
2021/03/22 04:20:35;;;;;;;8.70;5.00;;;5.40;99.90;;;;;;5054673;28;20447;-51
2021/03/22 04:23:01;;;;;;;9.55;5.07;;;5.40;99.90;;;;;;5044878;28;20022;-50
2021/03/22 04:25:27;;;;;;;7.53;5.10;;;5.40;99.90;;;;;;5048754;28;20045;-51
2021/03/22 04:27:53;;;;;;;8.65;4.85;;;5.30;99.90;;;;;;5036965;28;20054;-51
2021/03/22 04:30:19;;;;;;;10.07;5.57;;;5.00;99.90;;;;;;5018752;28;20042;-51
2021/03/22 04:32:45;;;;;;;9.52;5.35;;;4.90;99.90;;;;;;5037112;28;20033;-51
2021/03/22 04:35:11;;;;;;;8.68;5.28;;;4.90;99.90;;;;;;5054604;28;20029;-51
2021/03/22 04:37:37;;;;;;;8.48;4.57;;;4.80;99.90;;;;;;5017215;28;20045;-51
2021/03/22 04:40:06;;;;;;;8.10;4.40;;;4.70;99.90;;;;;;5035142;28;20373;-51
2021/03/22 04:42:32;;;;;;;6.95;3.97;;;4.50;99.90;;;;;;5035271;28;20034;-50
2021/03/22 04:44:58;;;;;;;7.68;4.63;;;4.30;99.90;;;;;;5016985;28;20543;-51
2021/03/22 04:47:23;;;;;;;9.75;4.78;;;4.20;99.90;;;;;;5035280;28;20045;-51
2021/03/22 04:49:49;;;;;;;6.88;4.45;;;4.30;99.90;;;;;;5035366;28;20042;-51
2021/03/22 04:52:15;;;;;;;7.25;4.43;;;4.40;99.90;;;;;;5034834;28;20069;-51
2021/03/22 04:54:41;;;;;;;8.48;4.47;;;4.50;99.90;;;;;;5035069;28;20116;-51
2021/03/22 04:57:25;;;;;;;7.63;4.60;;;4.50;99.90;;;;;;5035129;28;20477;-51
2021/03/22 04:59:52;;;;;;;7.30;4.60;;;4.60;99.90;;;;;;4960996;28;20038;-51
2021/03/22 05:02:18;;;;;;;5.65;3.92;;;4.70;99.90;;;;;;4960943;28;20058;-51
2021/03/22 05:04:44;;;;;;;7.07;4.28;;;4.70;99.90;;;;;;4993181;28;20145;-51
2021/03/22 05:07:10;;;;;;;5.32;3.83;;;4.80;99.90;;;;;;4977353;28;20035;-50
2021/03/22 05:09:36;;;;;;;6.07;4.47;;;4.90;99.90;;;;;;4960945;28;20442;-50
2021/03/22 05:12:03;;;;;;;6.38;3.80;;;4.90;99.90;;;;;;4976881;28;20038;-50
2021/03/22 05:14:30;;;;;;;7.50;4.05;;;;;;;;;;4976853;28;20652;-51
2021/03/22 05:16:56;;;;;;;6.97;4.07;;;5.00;99.90;;;;;;4993278;28;20026;-51
2021/03/22 05:19:21;;;;;;;8.07;4.65;;;5.00;99.90;;;;;;4993060;28;20042;-51
2021/03/22 05:21:47;;;;;;;7.65;4.35;;;4.90;99.90;;;;;;4983393;28;20054;-50
2021/03/22 05:24:13;;;;;;;6.88;4.60;;;5.00;99.90;;;;;;5011360;28;20420;-51
2021/03/22 05:26:38;;;;;;;8.35;4.55;;;4.90;99.90;;;;;;5009412;28;20081;-51
2021/03/22 05:29:05;;;;;;;7.30;4.53;;;4.90;99.90;;;;;;4993120;28;20038;-51
2021/03/22 05:31:35;;;;;;;10.38;5.53;;;4.90;99.90;;;;;;5030845;28;20052;-51
2021/03/22 05:34:02;;;;;;;7.60;5.55;;;4.90;99.90;;;;;;5052390;28;20033;-51
2021/03/22 05:36:27;;;;;;;6.35;4.25;;;4.90;99.90;;;;;;5051686;28;20380;-51
2021/03/22 05:38:53;;;;;;;7.47;5.22;;;4.90;99.90;;;;;;5043675;28;20100;-51
2021/03/22 05:41:23;;;;;;;10.75;6.90;;;4.90;99.90;;;;;;5047233;28;20090;-51
2021/03/22 05:44:02;;;;;;;12.48;6.82;;;5.00;99.90;;;;;;5054162;28;20399;-51
2021/03/22 05:46:46;;;;;;;11.38;6.20;;;5.00;99.90;;;;;;5053350;28;20079;-51
2021/03/22 05:49:18;;;;;;;6.10;4.68;;;5.00;99.90;;;;;;5050391;28;20025;-51
2021/03/22 05:52:08;;;;;;;9.55;5.68;;;5.00;99.90;;;;;;5043454;28;20389;-50
2021/03/22 05:54:52;;;;;;;9.98;5.25;;;5.10;99.90;;;;;;5033764;28;20500;-50
2021/03/22 05:57:39;;;;;;;9.88;5.40;;;5.20;99.90;;;;;;5034113;28;20037;-51
2021/03/22 06:00:35;;;;;;;10.13;5.78;;;5.30;99.90;;;;;;5043850;28;20079;-51
2021/03/22 06:03:25;;;;;;;9.07;5.07;;;5.30;99.90;;;;;;5041472;28;20028;-51
2021/03/22 06:06:18;;;;;;;9.05;5.80;;;5.40;99.90;;;;;;5040004;28;20036;-51
2021/03/22 06:08:48;;;;;;;;;;;5.40;99.90;;;;;;5043845;28;20033;-51
2021/03/22 06:11:32;;;;;;;8.07;4.80;;;5.10;99.90;;;;;;5023087;28;19909;-50
2021/03/22 06:14:08;;;;;;;9.27;5.90;;;5.20;99.90;;;;;;5036369;28;20091;-50
2021/03/22 06:16:36;;;;;;;12.07;6.28;;;5.20;99.90;;;;;;5047834;28;20037;-51
2021/03/22 06:19:10;;;;;;;9.05;5.05;;;5.10;99.90;;;;;;5039898;28;20075;-51
2021/03/22 06:21:38;;;;;;;8.63;5.40;;;5.10;99.90;;;;;;5036736;28;20384;-51
2021/03/22 06:24:18;;;;;;;9.82;5.55;;;5.10;99.90;;;;;;5042310;28;20029;-51
2021/03/22 06:26:52;;;;;;;9.63;5.78;;;5.10;99.90;;;;;;5033459;28;20362;-51
2021/03/22 06:29:26;;;;;;;8.05;5.43;;;5.10;99.90;;;;;;5033547;28;20377;-50
2021/03/22 06:31:56;;;;;;;8.02;5.18;;;5.30;99.90;;;;;;5033656;28;20495;-52
2021/03/22 06:34:44;;;;;;;8.90;5.88;;;5.20;99.90;;;;;;5033524;28;20029;-52
2021/03/22 06:37:12;;;;;;;8.27;5.40;;;5.30;99.90;;;;;;5033765;28;20029;-52
2021/03/22 06:39:41;;;;;;;10.90;6.07;;;5.20;99.90;;;;;;5040946;28;20483;-52
2021/03/22 06:42:23;;;;;;;9.57;5.75;;;;;;;;;;5045354;28;20507;-53
2021/03/22 06:44:51;;;;;;;10.82;6.57;;;4.80;99.90;;;;;;5050816;28;20036;-51
2021/03/22 06:47:25;;;;;;;11.65;6.68;;;4.80;99.90;;;;;;5053439;28;20041;-52
2021/03/22 06:50:29;;;;;;;12.05;6.30;;;4.80;99.90;;;;;;5035228;28;20549;-52
2021/03/22 06:52:54;;;;;;;9.90;5.97;;;4.80;99.90;;;;;;5035183;28;20446;-52
2021/03/22 06:55:26;;;;;;;8.68;5.53;;;4.90;99.90;;;;;;5052080;28;20052;-52
2021/03/22 06:57:52;;;;;;;11.53;6.23;;;;;;;;;;5020505;28;20107;-57
2021/03/22 07:00:24;;;;;;;10.75;6.28;;;4.80;99.90;;;;;;5057546;28;20317;-52
2021/03/22 07:03:01;;;;;;;11.05;7.05;;;4.80;99.90;;;;;;5039066;28;20133;-52
2021/03/22 07:05:38;;;;;;;14.68;7.22;;;4.90;99.90;;;;;;5055913;28;20033;-52
2021/03/22 07:08:04;;;;;;;7.60;5.45;;;4.80;99.90;;;;;;5057197;28;20029;-52
2021/03/22 07:10:43;;;;;;;8.68;5.85;;;4.70;99.90;;;;;;5057227;28;20083;-52
2021/03/22 07:13:23;;;;;;;12.63;6.53;;;4.50;99.90;;;;;;5057203;28;20375;-52
2021/03/22 07:15:51;;;;;;;11.23;5.97;;;4.30;99.90;;;;;;5022811;28;20041;-52
2021/03/22 07:18:26;;;;;;;12.80;6.40;;;4.30;99.90;;;;;;5057650;28;20055;-52
2021/03/22 07:20:55;;;;;;;12.95;6.57;;;4.30;99.90;;;;;;5057939;28;20044;-51
2021/03/22 07:23:27;;;;;;;10.65;6.63;;;4.10;99.90;;;;;;5057938;28;20110;-52
2021/03/22 07:26:15;;;;;;;13.40;7.50;;;4.10;99.90;;;;;;5047209;28;20163;-53
2021/03/22 07:29:00;;;;;;;17.40;7.15;;;4.10;99.90;;;;;;5044335;28;20041;-52
2021/03/22 07:32:04;;;;;;;11.45;6.97;;;4.20;99.90;;;;;;5038904;28;20444;-51
2021/03/22 07:34:30;;;;;;;13.68;6.90;;;;;;;;;;4956306;29;20575;-51
2021/03/22 07:36:56;;;;;;;17.15;8.07;;;;;;;;;;4956250;29;20094;-52
2021/03/22 07:39:25;;;;;;;13.38;7.88;;;;;;;;;;4956245;29;20055;-52
2021/03/22 07:41:58;;;;;;;13.30;7.43;;;4.30;99.90;;;;;;4966777;28;20035;-51
2021/03/22 07:44:49;;;;;;;12.45;8.13;;;4.30;99.90;;;;;;4975576;28;20077;-51
2021/03/22 07:47:26;;;;;;;12.18;6.53;;;4.30;99.90;;;;;;4955115;28;20045;-52
2021/03/22 07:50:28;;;;;;;12.38;7.18;;;4.00;99.90;;;;;;4975518;28;20046;-51
2021/03/22 07:53:07;;;;;;;12.15;6.13;;;4.10;99.90;;;;;;4975772;28;20478;-51
2021/03/22 07:55:45;;;;;;;11.25;7.38;;;4.10;99.90;;;;;;4975436;28;20074;-51
2021/03/22 07:58:33;;;;;;;12.65;7.70;;;4.10;99.90;;;;;;4975158;28;20047;-51
2021/03/22 08:01:18;;;;;;;17.95;9.00;;;4.20;99.90;;;;;;4973395;28;20120;-51
2021/03/22 08:04:04;;;;;;;13.27;7.53;;;4.40;99.90;;;;;;4973312;28;20609;-51
2021/03/22 08:06:55;;;;;;;13.68;8.35;;;4.50;99.90;;;;;;4974897;28;20038;-51
2021/03/22 08:09:27;;;;;;;13.32;7.57;;;4.40;99.90;;;;;;4993959;28;20502;-51
2021/03/22 08:11:54;;;;;;;14.13;8.68;;;4.50;99.90;;;;;;5039457;28;20071;-50
2021/03/22 08:14:31;;;;;;;13.25;8.38;;;4.50;99.90;;;;;;5035992;28;20033;-52
2021/03/22 08:17:33;;;;;;;13.30;7.68;;;4.50;99.90;;;;;;5036508;28;20053;-52
2021/03/22 08:20:26;;;;;;;12.30;7.90;;;4.60;99.90;;;;;;5035705;28;20091;-52
2021/03/22 08:23:11;;;;;;;13.95;5.95;;;4.40;99.90;;;;;;5035662;28;20091;-52
2021/03/22 08:25:37;;;;;;;14.13;6.97;;;4.30;99.90;;;;;;5036309;28;20485;-52
2021/03/22 08:28:13;;;;;;;19.50;11.07;;;4.40;99.90;;;;;;5044577;28;20053;-51
2021/03/22 08:30:54;;;;;;;14.57;9.82;;;4.50;99.90;;;;;;5055153;28;20099;-52
2021/03/22 08:33:25;;;;;;;16.50;8.77;;;4.50;99.90;;;;;;5055540;28;20114;-51
2021/03/22 08:36:28;;;;;;;14.70;8.90;;;4.60;99.90;;;;;;5054480;28;20037;-55
2021/03/22 08:39:15;;;;;;;12.25;6.30;;;4.60;99.90;;;;;;4953872;29;20499;-53
2021/03/22 08:41:58;;;;;;;13.80;8.00;;;4.50;99.90;;;;;;4954846;29;20043;-49
2021/03/22 08:44:52;;;;;;;14.45;8.40;;;4.50;99.90;;;;;;4955272;29;20102;-49
2021/03/22 08:47:39;;;;;;;14.73;8.13;;;4.50;99.90;;;;;;4955084;29;20043;-49
2021/03/22 08:50:16;;;;;;;13.95;8.07;;;4.50;99.90;;;;;;4954325;29;20039;-49
2021/03/22 08:53:17;;;;;;;16.92;8.50;;;4.50;99.90;;;;;;4936603;29;20043;-50
2021/03/22 08:55:59;;;;;;;16.98;10.15;;;4.50;99.90;;;;;;4954064;29;20035;-54
2021/03/22 08:58:34;;;;;;;25.95;13.13;;;4.60;99.90;;;;;;4954692;29;20071;-58
2021/03/22 09:01:09;;;;;;;43.67;23.75;;;4.60;99.90;;;;;;4954486;29;20106;-49
2021/03/22 09:03:40;;;;;;;22.58;12.27;;;4.60;99.90;;;;;;4954461;29;20102;-56
2021/03/22 09:06:19;;;;;;;25.63;13.23;;;4.40;99.90;;;;;;4919276;29;20066;-56
2021/03/22 09:08:53;;;;;;;22.85;12.93;;;4.40;99.90;;;;;;4919411;29;20493;-53
2021/03/22 09:11:50;;;;;;;14.30;8.98;;;4.60;99.90;;;;;;4932603;29;20210;-57
2021/03/22 09:14:15;;;;;;;13.15;8.05;;;4.60;99.90;;;;;;4917788;29;20043;-53
2021/03/22 09:16:42;;;;;;;15.63;9.27;;;4.60;99.90;;;;;;4956943;28;20419;-58
2021/03/22 09:19:11;;;;;;;14.23;8.20;;;4.60;99.90;;;;;;4955021;28;20520;-55
2021/03/22 09:21:42;;;;;;;10.02;6.85;;;4.70;99.90;;;;;;4959027;28;20101;-55
2021/03/22 09:27:24;;;;;;;11.10;7.15;;;4.60;99.90;;;;;;4958341;28;20078;-56
2021/03/22 09:30:31;;;;;;;12.88;7.40;;;4.70;99.90;;;;;;4944342;28;20055;-56
2021/03/22 09:32:58;;;;;;;10.43;6.60;;;4.60;99.90;;;;;;4934483;29;20428;-57
2021/03/22 09:35:23;;;;;;;14.45;7.53;;;4.60;99.90;;;;;;4934634;29;20042;-54
2021/03/22 09:38:03;;;;;;;12.77;8.15;;;4.70;99.90;;;;;;4934226;29;20388;-61
2021/03/22 09:40:29;;;;;;;15.32;9.48;;;4.70;99.90;;;;;;4934734;29;20044;-57
2021/03/22 09:43:11;;;;;;;15.80;8.45;;;4.80;99.90;;;;;;4943866;28;20046;-55
2021/03/22 09:45:53;;;;;;;11.35;7.22;;;5.00;99.90;;;;;;4973371;28;20058;-55
2021/03/22 09:48:32;;;;;;;11.07;7.10;;;4.90;99.90;;;;;;4972861;28;20471;-53
2021/03/22 09:51:02;;;;;;;16.75;8.60;;;4.80;99.90;;;;;;4972876;28;20035;-57
2021/03/22 09:53:53;;;;;;;15.82;8.15;;;5.00;99.90;;;;;;4973085;28;20039;-53
2021/03/22 09:56:32;;;;;;;12.38;8.05;;;5.00;99.90;;;;;;4971212;28;20043;-52
2021/03/22 09:59:29;;;;;;;14.02;8.40;;;4.90;99.90;;;;;;4971518;28;20058;-53
2021/03/22 10:01:57;;;;;;;12.10;7.35;;;5.00;99.90;;;;;;4971371;28;20402;-52
2021/03/22 10:04:31;;;;;;;14.85;8.18;;;4.80;99.90;;;;;;4971512;28;20042;-53
2021/03/22 10:07:09;;;;;;;15.13;8.30;;;4.80;99.90;;;;;;4971588;28;20053;-53
2021/03/22 10:09:35;;;;;;;12.38;8.43;;;4.70;99.90;;;;;;5000324;28;20503;-53
2021/03/22 10:12:22;;;;;;;13.70;7.25;;;4.50;99.90;;;;;;5032458;28;20029;-53
2021/03/22 10:15:10;;;;;;;9.07;5.85;;;4.60;99.90;;;;;;5032942;28;20025;-54
2021/03/22 10:17:49;;;;;;;10.25;6.65;;;4.60;99.90;;;;;;5051902;28;20391;-55
2021/03/22 10:20:45;;;;;;;11.05;6.15;;;4.60;99.90;;;;;;5047162;28;20070;-56
2021/03/22 10:23:26;;;;;;;13.82;7.40;;;4.60;99.90;;;;;;5052272;28;20025;-53
2021/03/22 10:26:03;;;;;;;11.80;6.55;;;4.50;99.90;;;;;;5049018;28;20091;-56
2021/03/22 10:28:29;;;;;;;9.90;5.65;;;4.70;99.90;;;;;;5052412;28;20033;-56
2021/03/22 10:31:13;;;;;;;17.73;8.77;;;4.60;99.90;;;;;;5048559;28;20048;-53
2021/03/22 10:33:46;;;;;;;11.05;6.63;;;4.60;99.90;;;;;;4980288;28;20039;-52
2021/03/22 10:36:24;;;;;;;13.25;7.72;;;4.60;99.90;;;;;;4934194;28;20035;-53
2021/03/22 10:38:52;;;;;;;9.75;5.82;;;4.80;99.90;;;;;;4954200;28;20085;-58
2021/03/22 10:41:31;;;;;;;12.48;7.82;;;4.60;99.90;;;;;;4980724;28;20608;-54
2021/03/22 10:44:13;;;;;;;13.32;6.68;;;4.80;99.90;;;;;;4968464;28;20046;-53
2021/03/22 10:46:39;;;;;;;11.75;7.30;;;4.90;99.90;;;;;;4970902;28;20031;-53
2021/03/22 10:49:14;;;;;;;9.52;6.45;;;4.90;99.90;;;;;;4907046;28;20482;-56
2021/03/22 10:51:47;;;;;;;10.75;6.05;;;4.90;99.90;;;;;;4971104;28;20035;-56
2021/03/22 10:54:14;;;;;;;;;;;4.80;99.90;;;;;;4971286;28;20207;-55
2021/03/22 10:56:46;;;;;;;9.23;5.32;;;4.90;99.90;;;;;;4971017;28;20368;-55
2021/03/22 10:59:34;;;;;;;12.35;7.22;;;4.80;99.90;;;;;;4970836;28;20035;-55
2021/03/22 11:02:08;;;;;;;9.27;6.55;;;4.70;99.90;;;;;;4970586;28;20109;-51
2021/03/22 11:04:37;;;;;;;11.50;6.07;;;4.80;99.90;;;;;;4991187;28;20042;-55
2021/03/22 11:07:19;;;;;;;9.35;5.53;;;4.80;99.90;;;;;;5009799;28;20030;-57
2021/03/22 11:09:57;;;;;;;7.95;5.70;;;4.90;99.90;;;;;;4981855;28;20033;-52
2021/03/22 11:12:25;;;;;;;7.60;5.63;;;5.00;99.90;;;;;;5051704;28;20639;-53
2021/03/22 11:15:04;;;;;;;9.23;5.18;;;5.00;99.90;;;;;;4999439;28;20033;-53
2021/03/22 11:17:30;;;;;;;12.07;6.25;;;5.00;99.90;;;;;;5044600;28;20036;-54
2021/03/22 11:20:00;;;;;;;10.25;6.32;;;5.10;99.90;;;;;;5033017;28;20033;-52
2021/03/22 11:22:31;;;;;;;10.05;5.78;;;5.10;99.90;;;;;;5042553;28;20057;-49
2021/03/22 11:24:58;;;;;;;12.82;6.88;;;5.00;99.90;;;;;;5031795;28;20025;-52
2021/03/22 11:27:26;;;;;;;7.28;5.13;;;5.10;99.90;;;;;;5031889;28;20516;-52
2021/03/22 11:29:56;;;;;;;6.35;4.47;;;5.10;99.90;;;;;;5034255;28;20560;-52
2021/03/22 11:32:27;;;;;;;10.60;6.60;;;5.10;99.90;;;;;;5048956;28;20503;-53
2021/03/22 11:34:54;;;;;;;11.50;6.95;;;5.20;99.90;;;;;;5031528;28;20469;-49
2021/03/22 11:37:30;;;;;;;11.00;6.28;;;5.00;99.90;;;;;;5036275;28;20028;-53
2021/03/22 11:40:01;;;;;;;8.00;6.18;;;5.00;99.90;;;;;;5052105;28;20079;-54
2021/03/22 11:42:34;;;;;;;9.15;6.13;;;5.00;99.90;;;;;;4997179;28;20069;-52
2021/03/22 11:45:19;;;;;;;9.70;6.22;;;5.00;99.90;;;;;;4991562;28;20037;-56
2021/03/22 11:47:45;;;;;;;10.70;6.75;;;5.10;99.90;;;;;;5034233;28;20064;-51
2021/03/22 11:50:35;;;;;;;8.95;5.65;;;5.20;99.90;;;;;;5043985;28;20056;-52
2021/03/22 11:53:19;;;;;;;7.72;5.68;;;5.30;99.90;;;;;;5006288;28;20038;-52
2021/03/22 11:55:57;;;;;;;10.20;5.95;;;5.30;99.90;;;;;;5037835;28;20037;-52
2021/03/22 11:58:25;;;;;;;9.93;6.32;;;5.30;99.90;;;;;;4999946;28;20400;-55
2021/03/22 12:00:52;;;;;;;13.43;7.03;;;5.40;99.90;;;;;;5034974;28;20022;-51
2021/03/22 12:03:44;;;;;;;7.93;4.45;;;5.50;99.90;;;;;;5034902;28;20034;-52
2021/03/22 12:06:15;;;;;;;12.05;6.25;;;5.40;99.90;;;;;;5031036;28;20433;-54
2021/03/22 12:08:53;;;;;;;11.13;5.85;;;5.40;99.90;;;;;;5034880;28;20436;-51
2021/03/22 12:11:29;;;;;;;9.07;6.03;;;5.40;99.90;;;;;;4999734;28;20065;-51
2021/03/22 12:14:00;;;;;;;11.35;6.57;;;5.00;99.90;;;;;;5034958;28;20026;-50
2021/03/22 12:16:34;;;;;;;9.55;6.40;;;5.20;99.90;;;;;;5034791;28;20025;-53
2021/03/22 12:19:24;;;;;;;8.88;5.40;;;5.30;99.90;;;;;;5034488;28;20369;-51
2021/03/22 12:21:49;;;;;;;8.93;5.55;;;5.10;99.90;;;;;;5034555;28;20025;-51
2021/03/22 12:24:17;;;;;;;8.63;5.53;;;5.10;99.90;;;;;;5034404;28;20159;-52
2021/03/22 12:26:44;;;;;;;8.50;5.63;;;5.20;99.90;;;;;;4999568;28;20095;-49
2021/03/22 12:29:10;;;;;;;11.18;7.22;;;5.20;99.90;;;;;;5034375;28;20026;-52
2021/03/22 12:31:47;;;;;;;13.35;7.65;;;5.30;99.90;;;;;;5034210;28;20077;-54
2021/03/22 12:34:20;;;;;;;8.68;5.68;;;5.20;99.90;;;;;;5034385;28;20041;-52
2021/03/22 12:36:46;;;;;;;29.50;15.07;;;5.20;99.90;;;;;;5034316;28;20033;-50
2021/03/22 12:39:18;;;;;;;25.92;15.30;;;5.20;99.90;;;;;;5015536;28;20088;-52
2021/03/22 12:41:44;;;;;;;20.25;13.10;;;5.40;99.90;;;;;;5034181;28;20045;-53
2021/03/22 12:44:10;;;;;;;19.48;11.93;;;5.30;99.90;;;;;;5034012;28;20084;-51
2021/03/22 12:46:36;;;;;;;14.10;8.93;;;5.10;99.90;;;;;;5034177;28;20026;-53
2021/03/22 12:49:02;;;;;;;11.43;7.03;;;5.10;99.90;;;;;;5034170;28;20029;-49
2021/03/22 12:51:28;;;;;;;8.60;6.70;;;5.00;99.90;;;;;;4992079;28;20096;-49
2021/03/22 12:53:53;;;;;;;16.67;9.65;;;4.90;99.90;;;;;;4992398;28;20085;-50
2021/03/22 12:56:26;;;;;;;13.85;7.45;;;5.00;99.90;;;;;;4959761;28;20089;-51
2021/03/22 12:58:57;;;;;;;10.30;6.85;;;5.00;99.90;;;;;;4992062;28;20362;-52
2021/03/22 13:01:23;;;;;;;10.60;6.17;;;4.90;99.90;;;;;;5001285;28;20056;-52
2021/03/22 13:03:50;;;;;;;14.00;8.02;;;4.80;99.90;;;;;;4999797;28;20113;-52
2021/03/22 13:06:20;;;;;;;10.48;6.72;;;4.80;99.90;;;;;;4991764;28;20042;-50
2021/03/22 13:08:47;;;;;;;12.00;7.40;;;4.80;99.90;;;;;;5008414;28;20099;-52
2021/03/22 13:11:15;;;;;;;13.95;7.82;;;4.70;99.90;;;;;;5012783;28;20046;-51
2021/03/22 13:13:41;;;;;;;10.38;6.15;;;4.90;99.90;;;;;;5006047;28;20030;-54
2021/03/22 13:16:08;;;;;;;15.35;8.98;;;5.00;99.90;;;;;;4957917;28;20371;-52
2021/03/22 13:18:35;;;;;;;15.07;7.93;;;5.20;99.90;;;;;;5011179;28;20030;-51
2021/03/22 13:21:13;;;;;;;14.13;8.95;;;5.40;99.90;;;;;;5011461;28;20034;-50
2021/03/22 13:23:39;;;;;;;17.85;9.30;;;5.40;99.90;;;;;;5034536;28;20366;-51
2021/03/22 13:26:07;;;;;;;11.40;6.78;;;5.40;99.90;;;;;;5036756;28;20029;-50